createdAt,value
2023-04-16T00:00:07.857Z,6.3
2023-04-16T00:30:22.344Z,7.5
2023-04-16T01:00:01.308Z,7.4
2023-04-16T01:30:17.189Z,7.1
2023-04-16T02:00:09.989Z,7.8
2023-04-16T02:30:18.081Z,7.2
2023-04-16T03:00:10.806Z,7.6
2023-04-16T03:30:11.487Z,6.3
2023-04-16T04:00:11.597Z,6.3
2023-04-16T04:30:12.713Z,7.5
2023-04-16T05:00:14.502Z,7.3
2023-04-16T05:30:29.286Z,7.7
2023-04-16T06:00:14.953Z,7.7
2023-04-16T06:30:30.196Z,7.9
2023-04-16T07:00:23.251Z,7.9
2023-04-16T07:30:07.200Z,7.8
2023-04-16T08:00:24.089Z,8.6
2023-04-16T08:30:15.998Z,9.6
2023-04-16T09:30:17.133Z,9.7
2023-04-16T10:00:16.948Z,9
2023-04-16T10:30:18.511Z,9.5
2023-04-16T11:00:11.106Z,10.8
2023-04-16T11:30:26.254Z,10.4
2023-04-16T12:00:11.618Z,9.8
2023-04-16T12:30:19.101Z,10.1
2023-04-16T13:00:27.401Z,9.8
2023-04-16T13:30:19.497Z,10
2023-04-16T14:00:10.249Z,9.9
2023-04-16T14:30:08.969Z,9.3
2023-04-16T15:00:24.451Z,9.7
2023-04-16T15:30:16.576Z,10
2023-04-16T16:30:02.528Z,9.8
2023-04-16T17:00:02.861Z,9.4
2023-04-16T17:30:25.552Z,8.7
2023-04-16T18:00:26.412Z,8.6
2023-04-16T18:30:05.943Z,9.3
2023-04-16T19:00:22.124Z,8.9
2023-04-16T19:30:13.737Z,9.1
2023-04-16T20:00:13.686Z,8.7
2023-04-16T20:30:30.080Z,9.2
2023-04-16T21:00:21.830Z,8.9
2023-04-16T21:30:07.056Z,9.1
2023-04-16T22:00:22.043Z,9.1
2023-04-16T22:30:14.419Z,9
2023-04-16T23:30:25.059Z,8.9
